Airfield :
LOGIN :

Register | Disclaimer

   EN    FR    IT 

 










Legend :    VFR   Marginal VFR   IFR   Intensive IFR   Very Intensive IFR
Visi :
Ceiling :
>= 8 km
>= 3000ft
5 to 8 km
1000 to 3000 ft
1500m to 5 km
500 to 1000 ft
800 to 1500m
200 to 500 ft
< 800m
< 200 ft
Symbols :   Thunderstorms  Fog  Heavy snow  Heavy precipitations  Wind > 20 kt
SIGMETs :     Misc.  Thunderstorms  Icing  Turbulence  Mountain Waves  Volcanic Ashes






- Airport Elevation : 461 ft
- IATA code : WIE


ETOU - Wiesbaden Army

CURRENT METAR :
  • 081456Z AUTO 12007KT 9999 OVC060 07/M02 A3016 RMK AO2 SLP222 T00671017 57010 $

EXPIRED METARs :
  • 081356Z AUTO 12005KT 9999 OVC060 07/M02 A3016 RMK AO2 SLP222 T00661023 $
  • 081256Z AUTO 17003KT 9999 OVC060 07/M02 A3017 RMK AO2 SLP226 T00651021 $

TAF TAF ETOU
Valid from the 08 at 13:00 until the 09 at 19:00 UTC


081300Z 0813/0919 VRB06KT 9999 FEW020 OVC050 620501 QNH3016INS
BECMG 0909/0910 VRB06KT 9999 BKN020 620208 QNH3004INS
BECMG 0911/0912 20010KT 8000 -RA BKN020 620208 QNH3002INS TX06/0815Z TN01/0906Z



MET'MAP, your aeronautical weather chart ! - Copyright ORBIFLY December 2007 - Disclaimer

ORBIFLY MET'MAP TEAM :

Programming & Development : Alexandra Zaïnal
Concept & original design : Baudouin d'Aumeries
Assistance for programming : Marc-Olivier Méhu
Technical & hardware support : Manuel Goepfert

Contact : metmap@orbifly.com




SOURCES & CREDITS :

   NOAA